Lihue Airport Lihue US
ICAO: PHLI
IATA:
Category: Medium
Scheduled Services:

Elevation: 153 ft
TransAlt. 18000 ft.

Airport Communications:
ATIS:127.2
HONOLULU CNTR:126.5
CTAF:118.9
GND:121.9
HONOLULU:122.6
TWR:118.9

PHLI Zoom In..

If you have problems with the map follow the link
https://www.worldairports.se/pages/airport.php?
ICAO=PHLI

Runways:

(A) RW 03 length 6500 ft width 150 ft
---- / hdg 34

(B) RW 17 length 6500 ft width 150 ft
---- / hdg 169

(C) RW 21 length 6500 ft width 150 ft
---- / hdg 214

(D) RW 35 length 6500 ft width 150 ft
ILS 110.90 / hdg 349

Location; PHLI
Day. 16 / Time. 11.36 Zulu
* Altimeter: 30.00
* Temperature: 23° c. 73.4°f.
* Wind from: 010° Speed 05 kn.
Dewpoint: 19° c.
Visibility: 10 Statute Miles.
Clouds: Few 1900 ft.
Clouds: Broken 2600 ft.
Clouds: Overcast 5000 ft.
Conditions: Light Rain.

PHLI 161136Z AUTO 01005KT 10SM -RA FEW019 BKN026 OVC050 23/19 A3000 RMK AO2 RAB32 P0000 T02330189 TSNO


Wind From 010°
Speed 05 kn.

 
 
jpsmedia.com for Web Design worldairports.se 2018   terms of use